In Rescue
 
Open Full Screen Window  High Contrast Mode
November 29, 2022 8:37 AM CST
Weather Information
Wind Direction
  ---
Wind Speed
  00 kt (0 mph)
Wind Gust
  00 kt (0 mph)
Altimeter
29.73 in
Visibility
10 SM
Temperature
-06° C
21° F
Dewpoint
-09° C
16° F
Humidity
80%
1hr Rain Fall
00.00 in.
24hr Rain Fall
00.00 in.
Sky Condition
Clear
VFR

METAR KCDD 291437Z AUTO 00000KT 10SM CLR M06/M09 A2973 RMK AO2

FAA Disclaimer: The data displayed is for advisory purposes only and is not to be used for flight planning or operations.